MET'MAP v2.0
soon released !

Expected late october,
this new version will be
more efficient, smarter,
and hosted on a brand new
server x3 powerfull...
...and still free !


Not compatible ?
Try the mobile version !

LOG IN : | Subscribe | Disclaimer | Who is Orbifly ? |
ICAO code :

TAF - LSGC Les Eplatures - 12 Nov 2019 11:57 UTC
Data Sources :     NOAA   


- Airport Elevation : 3368 ft
- No reported NOTAMs.


LSGC - Les Eplatures

Latest METAR recorded : 2015/08/11 07:50 LSGC 110750Z 06005KT 010V140 9999 SCT012 BKN017 19/16 Q1019
TAF TAF LSGC
Valid from the 12 at 09:00 until the 12 at 18:00 UTC


120825Z 1209/1218 24008KT 9999 FEW020

Source NOAA


MET'MAP, your aeronautical weather chart ! - Copyright ORBIFLY December 2007

Programming & Development : Alexandra Zaïnal
Co-Developer : Marc-Olivier Méhu
Technical & hardware support : Manuel Goepfert
Concept & Financing : Baudouin d'Aumeries